sensor_id;sensor_type;location;lat;lon;timestamp;P1;durP1;ratioP1;P2;durP2;ratioP2
26086;SDS011;13851;43.434;28.338;2023-04-24T00:00:34;17.00;;;11.80;;
26086;SDS011;13851;43.434;28.338;2023-04-24T00:02:59;20.35;;;12.18;;
26086;SDS011;13851;43.434;28.338;2023-04-24T00:05:25;18.85;;;11.13;;
26086;SDS011;13851;43.434;28.338;2023-04-24T00:07:50;14.95;;;8.70;;
26086;SDS011;13851;43.434;28.338;2023-04-24T00:10:19;16.38;;;8.52;;
26086;SDS011;13851;43.434;28.338;2023-04-24T00:12:45;13.38;;;8.40;;
26086;SDS011;13851;43.434;28.338;2023-04-24T00:15:10;14.52;;;9.00;;
26086;SDS011;13851;43.434;28.338;2023-04-24T00:17:36;16.27;;;9.88;;
26086;SDS011;13851;43.434;28.338;2023-04-24T00:20:02;15.65;;;8.73;;
26086;SDS011;13851;43.434;28.338;2023-04-24T00:22:29;19.70;;;9.38;;
26086;SDS011;13851;43.434;28.338;2023-04-24T00:24:56;14.43;;;9.50;;
26086;SDS011;13851;43.434;28.338;2023-04-24T00:27:22;13.98;;;10.32;;
26086;SDS011;13851;43.434;28.338;2023-04-24T00:29:47;14.45;;;9.77;;
26086;SDS011;13851;43.434;28.338;2023-04-24T00:32:13;15.95;;;10.13;;
26086;SDS011;13851;43.434;28.338;2023-04-24T00:34:39;12.82;;;9.05;;
26086;SDS011;13851;43.434;28.338;2023-04-24T00:37:07;16.02;;;9.80;;
26086;SDS011;13851;43.434;28.338;2023-04-24T00:39:32;16.25;;;9.85;;
26086;SDS011;13851;43.434;28.338;2023-04-24T00:41:58;13.93;;;10.13;;
26086;SDS011;13851;43.434;28.338;2023-04-24T00:44:24;18.42;;;9.90;;
26086;SDS011;13851;43.434;28.338;2023-04-24T00:46:49;14.38;;;9.60;;
26086;SDS011;13851;43.434;28.338;2023-04-24T00:49:19;13.98;;;9.15;;
26086;SDS011;13851;43.434;28.338;2023-04-24T00:51:45;15.85;;;10.00;;
26086;SDS011;13851;43.434;28.338;2023-04-24T00:54:11;17.75;;;10.13;;
26086;SDS011;13851;43.434;28.338;2023-04-24T00:56:41;15.73;;;9.50;;
26086;SDS011;13851;43.434;28.338;2023-04-24T00:59:07;15.05;;;9.52;;
26086;SDS011;13851;43.434;28.338;2023-04-24T01:01:33;16.40;;;9.90;;
26086;SDS011;13851;43.434;28.338;2023-04-24T01:04:00;16.42;;;10.32;;
26086;SDS011;13851;43.434;28.338;2023-04-24T01:06:27;12.23;;;9.50;;
26086;SDS011;13851;43.434;28.338;2023-04-24T01:08:54;16.05;;;10.68;;
26086;SDS011;13851;43.434;28.338;2023-04-24T01:11:22;12.50;;;10.55;;
26086;SDS011;13851;43.434;28.338;2023-04-24T01:13:47;14.80;;;11.27;;
26086;SDS011;13851;43.434;28.338;2023-04-24T01:16:16;17.50;;;11.07;;
26086;SDS011;13851;43.434;28.338;2023-04-24T01:18:42;19.02;;;10.90;;
26086;SDS011;13851;43.434;28.338;2023-04-24T01:21:08;16.35;;;11.93;;
26086;SDS011;13851;43.434;28.338;2023-04-24T01:23:38;16.52;;;12.25;;
26086;SDS011;13851;43.434;28.338;2023-04-24T01:26:03;21.35;;;11.90;;
26086;SDS011;13851;43.434;28.338;2023-04-24T01:28:29;19.60;;;11.43;;
26086;SDS011;13851;43.434;28.338;2023-04-24T01:30:55;18.77;;;11.48;;
26086;SDS011;13851;43.434;28.338;2023-04-24T01:33:21;17.08;;;11.50;;
26086;SDS011;13851;43.434;28.338;2023-04-24T01:35:47;17.83;;;12.73;;
26086;SDS011;13851;43.434;28.338;2023-04-24T01:38:14;16.33;;;12.15;;
26086;SDS011;13851;43.434;28.338;2023-04-24T01:40:39;14.60;;;11.98;;
26086;SDS011;13851;43.434;28.338;2023-04-24T01:43:05;18.02;;;11.77;;
26086;SDS011;13851;43.434;28.338;2023-04-24T01:45:31;19.08;;;12.35;;
26086;SDS011;13851;43.434;28.338;2023-04-24T01:47:56;16.20;;;11.75;;
26086;SDS011;13851;43.434;28.338;2023-04-24T01:50:22;15.60;;;11.88;;
26086;SDS011;13851;43.434;28.338;2023-04-24T01:52:47;17.85;;;11.85;;
26086;SDS011;13851;43.434;28.338;2023-04-24T01:55:13;17.60;;;12.27;;
26086;SDS011;13851;43.434;28.338;2023-04-24T01:57:38;20.77;;;12.77;;
26086;SDS011;13851;43.434;28.338;2023-04-24T02:00:05;21.65;;;13.07;;
26086;SDS011;13851;43.434;28.338;2023-04-24T02:02:32;27.02;;;15.20;;
26086;SDS011;13851;43.434;28.338;2023-04-24T02:04:57;15.48;;;12.00;;
26086;SDS011;13851;43.434;28.338;2023-04-24T02:07:23;15.77;;;12.00;;
26086;SDS011;13851;43.434;28.338;2023-04-24T02:09:48;18.15;;;11.68;;
26086;SDS011;13851;43.434;28.338;2023-04-24T02:12:14;23.95;;;12.55;;
26086;SDS011;13851;43.434;28.338;2023-04-24T02:14:40;20.08;;;12.05;;
26086;SDS011;13851;43.434;28.338;2023-04-24T02:17:07;23.05;;;14.13;;
26086;SDS011;13851;43.434;28.338;2023-04-24T02:19:32;18.42;;;15.07;;
26086;SDS011;13851;43.434;28.338;2023-04-24T02:21:58;25.40;;;16.10;;
26086;SDS011;13851;43.434;28.338;2023-04-24T02:24:23;20.75;;;14.70;;
26086;SDS011;13851;43.434;28.338;2023-04-24T02:26:49;18.95;;;13.75;;
26086;SDS011;13851;43.434;28.338;2023-04-24T02:29:15;17.13;;;12.88;;
26086;SDS011;13851;43.434;28.338;2023-04-24T02:31:40;16.30;;;14.15;;
26086;SDS011;13851;43.434;28.338;2023-04-24T02:34:06;23.60;;;13.13;;
26086;SDS011;13851;43.434;28.338;2023-04-24T02:36:32;18.15;;;13.43;;
26086;SDS011;13851;43.434;28.338;2023-04-24T02:38:57;16.73;;;12.23;;
26086;SDS011;13851;43.434;28.338;2023-04-24T02:41:23;16.25;;;12.25;;
26086;SDS011;13851;43.434;28.338;2023-04-24T02:43:48;19.35;;;12.50;;
26086;SDS011;13851;43.434;28.338;2023-04-24T02:46:14;15.55;;;11.80;;
26086;SDS011;13851;43.434;28.338;2023-04-24T02:48:39;16.33;;;12.25;;
26086;SDS011;13851;43.434;28.338;2023-04-24T02:51:05;16.10;;;11.80;;
26086;SDS011;13851;43.434;28.338;2023-04-24T02:53:31;19.95;;;11.98;;
26086;SDS011;13851;43.434;28.338;2023-04-24T02:55:57;16.75;;;12.25;;
26086;SDS011;13851;43.434;28.338;2023-04-24T02:58:22;18.30;;;11.93;;
26086;SDS011;13851;43.434;28.338;2023-04-24T03:00:48;14.15;;;11.73;;
26086;SDS011;13851;43.434;28.338;2023-04-24T03:03:14;17.98;;;12.15;;
26086;SDS011;13851;43.434;28.338;2023-04-24T03:05:40;20.10;;;12.02;;
26086;SDS011;13851;43.434;28.338;2023-04-24T03:08:06;17.55;;;12.20;;
26086;SDS011;13851;43.434;28.338;2023-04-24T03:10:31;16.33;;;12.00;;
26086;SDS011;13851;43.434;28.338;2023-04-24T03:12:57;14.75;;;12.20;;
26086;SDS011;13851;43.434;28.338;2023-04-24T03:15:22;16.85;;;12.52;;
26086;SDS011;13851;43.434;28.338;2023-04-24T03:17:48;18.15;;;12.25;;
26086;SDS011;13851;43.434;28.338;2023-04-24T03:20:13;15.02;;;12.13;;
26086;SDS011;13851;43.434;28.338;2023-04-24T03:22:39;13.32;;;11.40;;
26086;SDS011;13851;43.434;28.338;2023-04-24T03:25:05;15.07;;;12.27;;
26086;SDS011;13851;43.434;28.338;2023-04-24T03:27:31;22.17;;;17.52;;
26086;SDS011;13851;43.434;28.338;2023-04-24T03:29:56;28.60;;;23.13;;
26086;SDS011;13851;43.434;28.338;2023-04-24T03:32:23;50.70;;;39.78;;
26086;SDS011;13851;43.434;28.338;2023-04-24T03:34:48;23.38;;;15.20;;
26086;SDS011;13851;43.434;28.338;2023-04-24T03:37:15;16.15;;;11.77;;
26086;SDS011;13851;43.434;28.338;2023-04-24T03:39:41;14.88;;;11.75;;
26086;SDS011;13851;43.434;28.338;2023-04-24T03:42:07;18.13;;;11.35;;
26086;SDS011;13851;43.434;28.338;2023-04-24T03:44:33;16.58;;;11.32;;
26086;SDS011;13851;43.434;28.338;2023-04-24T03:47:00;12.27;;;10.43;;
26086;SDS011;13851;43.434;28.338;2023-04-24T03:49:25;14.65;;;10.35;;
26086;SDS011;13851;43.434;28.338;2023-04-24T03:51:53;16.50;;;12.25;;
26086;SDS011;13851;43.434;28.338;2023-04-24T03:54:19;26.25;;;16.58;;
26086;SDS011;13851;43.434;28.338;2023-04-24T03:56:45;53.65;;;42.42;;
26086;SDS011;13851;43.434;28.338;2023-04-24T03:59:11;14.82;;;12.30;;
26086;SDS011;13851;43.434;28.338;2023-04-24T04:01:36;19.50;;;12.95;;
26086;SDS011;13851;43.434;28.338;2023-04-24T04:04:02;13.93;;;10.65;;
26086;SDS011;13851;43.434;28.338;2023-04-24T04:06:31;15.85;;;11.98;;
26086;SDS011;13851;43.434;28.338;2023-04-24T04:08:57;16.30;;;10.82;;
26086;SDS011;13851;43.434;28.338;2023-04-24T04:11:23;12.52;;;9.48;;
26086;SDS011;13851;43.434;28.338;2023-04-24T04:13:49;14.27;;;10.15;;
26086;SDS011;13851;43.434;28.338;2023-04-24T04:16:15;10.75;;;8.50;;
26086;SDS011;13851;43.434;28.338;2023-04-24T04:18:43;13.45;;;8.55;;
26086;SDS011;13851;43.434;28.338;2023-04-24T04:21:10;11.00;;;8.45;;
26086;SDS011;13851;43.434;28.338;2023-04-24T04:23:35;13.15;;;8.07;;
26086;SDS011;13851;43.434;28.338;2023-04-24T04:26:01;11.60;;;8.52;;
26086;SDS011;13851;43.434;28.338;2023-04-24T04:28:28;10.23;;;7.53;;
26086;SDS011;13851;43.434;28.338;2023-04-24T04:30:55;14.48;;;8.73;;
26086;SDS011;13851;43.434;28.338;2023-04-24T04:33:22;15.18;;;9.40;;
26086;SDS011;13851;43.434;28.338;2023-04-24T04:35:48;13.10;;;8.35;;
26086;SDS011;13851;43.434;28.338;2023-04-24T04:38:17;11.90;;;8.10;;
26086;SDS011;13851;43.434;28.338;2023-04-24T04:40:43;12.70;;;7.35;;
26086;SDS011;13851;43.434;28.338;2023-04-24T04:43:09;13.73;;;7.38;;
26086;SDS011;13851;43.434;28.338;2023-04-24T04:45:36;13.02;;;7.75;;
26086;SDS011;13851;43.434;28.338;2023-04-24T04:48:04;12.27;;;7.32;;
26086;SDS011;13851;43.434;28.338;2023-04-24T04:50:31;10.38;;;7.05;;
26086;SDS011;13851;43.434;28.338;2023-04-24T04:52:56;10.65;;;7.07;;
26086;SDS011;13851;43.434;28.338;2023-04-24T04:55:22;16.98;;;8.68;;
26086;SDS011;13851;43.434;28.338;2023-04-24T04:57:47;13.65;;;9.43;;
26086;SDS011;13851;43.434;28.338;2023-04-24T05:00:13;14.48;;;9.85;;
26086;SDS011;13851;43.434;28.338;2023-04-24T05:02:39;10.82;;;6.57;;
26086;SDS011;13851;43.434;28.338;2023-04-24T05:05:05;8.93;;;6.78;;
26086;SDS011;13851;43.434;28.338;2023-04-24T05:07:31;9.68;;;6.80;;
26086;SDS011;13851;43.434;28.338;2023-04-24T05:09:57;8.38;;;5.88;;
26086;SDS011;13851;43.434;28.338;2023-04-24T05:12:22;12.60;;;6.18;;
26086;SDS011;13851;43.434;28.338;2023-04-24T05:14:48;10.10;;;6.07;;
26086;SDS011;13851;43.434;28.338;2023-04-24T05:17:14;12.20;;;5.78;;
26086;SDS011;13851;43.434;28.338;2023-04-24T05:19:40;10.52;;;6.63;;
26086;SDS011;13851;43.434;28.338;2023-04-24T05:22:05;17.98;;;7.88;;
26086;SDS011;13851;43.434;28.338;2023-04-24T05:24:35;13.00;;;6.50;;
26086;SDS011;13851;43.434;28.338;2023-04-24T05:27:04;12.25;;;6.80;;
26086;SDS011;13851;43.434;28.338;2023-04-24T05:29:30;12.23;;;8.20;;
26086;SDS011;13851;43.434;28.338;2023-04-24T05:31:56;12.73;;;6.82;;
26086;SDS011;13851;43.434;28.338;2023-04-24T05:34:23;13.25;;;6.55;;
26086;SDS011;13851;43.434;28.338;2023-04-24T05:36:48;13.35;;;5.55;;
26086;SDS011;13851;43.434;28.338;2023-04-24T05:39:15;13.00;;;5.65;;
26086;SDS011;13851;43.434;28.338;2023-04-24T05:41:41;10.85;;;5.57;;
26086;SDS011;13851;43.434;28.338;2023-04-24T05:44:06;6.57;;;5.07;;
26086;SDS011;13851;43.434;28.338;2023-04-24T05:46:32;9.07;;;5.78;;
26086;SDS011;13851;43.434;28.338;2023-04-24T05:48:57;11.13;;;5.82;;
26086;SDS011;13851;43.434;28.338;2023-04-24T05:51:23;12.18;;;6.25;;
26086;SDS011;13851;43.434;28.338;2023-04-24T05:53:49;12.43;;;5.85;;
26086;SDS011;13851;43.434;28.338;2023-04-24T05:56:14;9.32;;;5.57;;
26086;SDS011;13851;43.434;28.338;2023-04-24T05:58:40;9.20;;;5.25;;
26086;SDS011;13851;43.434;28.338;2023-04-24T06:01:06;7.28;;;5.28;;
26086;SDS011;13851;43.434;28.338;2023-04-24T06:03:31;10.52;;;5.15;;
26086;SDS011;13851;43.434;28.338;2023-04-24T06:05:57;10.40;;;5.60;;
26086;SDS011;13851;43.434;28.338;2023-04-24T06:08:23;10.50;;;5.38;;
26086;SDS011;13851;43.434;28.338;2023-04-24T06:10:49;12.73;;;5.53;;
26086;SDS011;13851;43.434;28.338;2023-04-24T06:13:14;12.98;;;6.55;;
26086;SDS011;13851;43.434;28.338;2023-04-24T06:15:41;12.50;;;6.28;;
26086;SDS011;13851;43.434;28.338;2023-04-24T06:18:07;7.40;;;4.93;;
26086;SDS011;13851;43.434;28.338;2023-04-24T06:20:35;12.38;;;5.80;;
26086;SDS011;13851;43.434;28.338;2023-04-24T06:23:00;11.57;;;5.22;;
26086;SDS011;13851;43.434;28.338;2023-04-24T06:25:26;10.55;;;5.35;;
26086;SDS011;13851;43.434;28.338;2023-04-24T06:27:51;9.77;;;4.90;;
26086;SDS011;13851;43.434;28.338;2023-04-24T06:30:17;8.90;;;5.32;;
26086;SDS011;13851;43.434;28.338;2023-04-24T06:32:42;9.43;;;5.10;;
26086;SDS011;13851;43.434;28.338;2023-04-24T06:35:08;9.57;;;6.13;;
26086;SDS011;13851;43.434;28.338;2023-04-24T06:37:34;9.23;;;5.72;;
26086;SDS011;13851;43.434;28.338;2023-04-24T06:40:00;12.15;;;5.63;;
26086;SDS011;13851;43.434;28.338;2023-04-24T06:42:26;10.20;;;5.10;;
26086;SDS011;13851;43.434;28.338;2023-04-24T06:44:51;9.02;;;5.53;;
26086;SDS011;13851;43.434;28.338;2023-04-24T06:47:17;11.27;;;5.40;;
26086;SDS011;13851;43.434;28.338;2023-04-24T06:49:43;10.18;;;4.80;;
26086;SDS011;13851;43.434;28.338;2023-04-24T06:52:09;7.78;;;5.15;;
26086;SDS011;13851;43.434;28.338;2023-04-24T06:54:34;11.13;;;5.47;;
26086;SDS011;13851;43.434;28.338;2023-04-24T06:57:00;11.15;;;5.68;;
26086;SDS011;13851;43.434;28.338;2023-04-24T06:59:27;12.18;;;5.78;;
26086;SDS011;13851;43.434;28.338;2023-04-24T07:01:53;10.50;;;5.50;;
26086;SDS011;13851;43.434;28.338;2023-04-24T07:04:20;14.32;;;6.07;;
26086;SDS011;13851;43.434;28.338;2023-04-24T07:06:45;10.40;;;5.00;;
26086;SDS011;13851;43.434;28.338;2023-04-24T07:09:14;9.68;;;5.50;;
26086;SDS011;13851;43.434;28.338;2023-04-24T07:11:41;8.45;;;5.55;;
26086;SDS011;13851;43.434;28.338;2023-04-24T07:14:06;10.43;;;5.45;;
26086;SDS011;13851;43.434;28.338;2023-04-24T07:16:32;10.73;;;5.13;;
26086;SDS011;13851;43.434;28.338;2023-04-24T07:18:58;12.02;;;5.20;;
26086;SDS011;13851;43.434;28.338;2023-04-24T07:21:23;9.48;;;5.40;;
26086;SDS011;13851;43.434;28.338;2023-04-24T07:23:50;11.85;;;4.85;;
26086;SDS011;13851;43.434;28.338;2023-04-24T07:26:16;10.73;;;5.32;;
26086;SDS011;13851;43.434;28.338;2023-04-24T07:28:41;14.70;;;6.25;;
26086;SDS011;13851;43.434;28.338;2023-04-24T07:31:07;7.78;;;5.13;;
26086;SDS011;13851;43.434;28.338;2023-04-24T07:33:33;12.07;;;5.65;;
26086;SDS011;13851;43.434;28.338;2023-04-24T07:35:59;12.05;;;5.28;;
26086;SDS011;13851;43.434;28.338;2023-04-24T07:38:25;11.88;;;5.97;;
26086;SDS011;13851;43.434;28.338;2023-04-24T07:40:51;10.38;;;5.93;;
26086;SDS011;13851;43.434;28.338;2023-04-24T07:43:17;9.55;;;5.82;;
26086;SDS011;13851;43.434;28.338;2023-04-24T07:45:43;10.63;;;5.28;;
26086;SDS011;13851;43.434;28.338;2023-04-24T07:48:09;9.10;;;5.60;;
26086;SDS011;13851;43.434;28.338;2023-04-24T07:50:35;8.27;;;5.40;;
26086;SDS011;13851;43.434;28.338;2023-04-24T07:53:01;14.18;;;5.90;;
26086;SDS011;13851;43.434;28.338;2023-04-24T07:55:27;12.93;;;5.50;;
26086;SDS011;13851;43.434;28.338;2023-04-24T07:57:52;12.35;;;6.20;;
26086;SDS011;13851;43.434;28.338;2023-04-24T08:00:18;12.50;;;5.18;;
26086;SDS011;13851;43.434;28.338;2023-04-24T08:02:44;10.60;;;5.22;;
26086;SDS011;13851;43.434;28.338;2023-04-24T08:05:10;12.02;;;5.68;;
26086;SDS011;13851;43.434;28.338;2023-04-24T08:07:36;11.40;;;6.10;;
26086;SDS011;13851;43.434;28.338;2023-04-24T08:10:01;11.43;;;5.60;;
26086;SDS011;13851;43.434;28.338;2023-04-24T08:12:28;10.88;;;5.85;;
26086;SDS011;13851;43.434;28.338;2023-04-24T08:14:54;11.02;;;6.60;;
26086;SDS011;13851;43.434;28.338;2023-04-24T08:17:20;9.27;;;6.32;;
26086;SDS011;13851;43.434;28.338;2023-04-24T08:19:46;10.55;;;5.97;;
26086;SDS011;13851;43.434;28.338;2023-04-24T08:22:16;10.57;;;6.25;;
26086;SDS011;13851;43.434;28.338;2023-04-24T08:24:42;9.90;;;6.70;;
26086;SDS011;13851;43.434;28.338;2023-04-24T08:27:07;13.80;;;6.47;;
26086;SDS011;13851;43.434;28.338;2023-04-24T08:29:33;12.15;;;6.63;;
26086;SDS011;13851;43.434;28.338;2023-04-24T08:31:59;11.93;;;6.60;;
26086;SDS011;13851;43.434;28.338;2023-04-24T08:34:24;13.32;;;6.50;;
26086;SDS011;13851;43.434;28.338;2023-04-24T08:36:50;11.93;;;6.15;;
26086;SDS011;13851;43.434;28.338;2023-04-24T08:39:15;9.95;;;6.55;;
26086;SDS011;13851;43.434;28.338;2023-04-24T08:41:42;12.82;;;6.97;;
26086;SDS011;13851;43.434;28.338;2023-04-24T08:44:08;10.18;;;6.53;;
26086;SDS011;13851;43.434;28.338;2023-04-24T08:46:35;12.68;;;6.82;;
26086;SDS011;13851;43.434;28.338;2023-04-24T08:49:02;12.32;;;7.10;;
26086;SDS011;13851;43.434;28.338;2023-04-24T08:51:28;12.10;;;6.35;;
26086;SDS011;13851;43.434;28.338;2023-04-24T08:53:55;13.50;;;7.15;;
26086;SDS011;13851;43.434;28.338;2023-04-24T08:56:22;9.02;;;6.43;;
26086;SDS011;13851;43.434;28.338;2023-04-24T08:58:50;10.32;;;6.65;;
26086;SDS011;13851;43.434;28.338;2023-04-24T09:01:16;13.00;;;7.10;;
26086;SDS011;13851;43.434;28.338;2023-04-24T09:03:49;15.93;;;7.38;;
26086;SDS011;13851;43.434;28.338;2023-04-24T09:06:16;14.20;;;6.85;;
26086;SDS011;13851;43.434;28.338;2023-04-24T09:08:43;16.00;;;8.18;;
26086;SDS011;13851;43.434;28.338;2023-04-24T09:11:10;16.83;;;7.28;;
26086;SDS011;13851;43.434;28.338;2023-04-24T09:13:36;12.45;;;7.30;;
26086;SDS011;13851;43.434;28.338;2023-04-24T09:16:03;14.60;;;8.40;;
26086;SDS011;13851;43.434;28.338;2023-04-24T09:18:29;13.65;;;6.90;;
26086;SDS011;13851;43.434;28.338;2023-04-24T09:20:58;11.65;;;6.78;;
26086;SDS011;13851;43.434;28.338;2023-04-24T09:23:29;11.70;;;7.00;;
26086;SDS011;13851;43.434;28.338;2023-04-24T09:25:56;12.35;;;7.22;;
26086;SDS011;13851;43.434;28.338;2023-04-24T09:28:26;15.57;;;6.47;;
26086;SDS011;13851;43.434;28.338;2023-04-24T09:31:09;9.30;;;7.13;;
26086;SDS011;13851;43.434;28.338;2023-04-24T09:33:38;11.65;;;7.43;;
26086;SDS011;13851;43.434;28.338;2023-04-24T09:36:03;12.52;;;8.13;;
26086;SDS011;13851;43.434;28.338;2023-04-24T09:38:36;10.43;;;6.53;;
26086;SDS011;13851;43.434;28.338;2023-04-24T09:41:04;10.90;;;6.78;;
26086;SDS011;13851;43.434;28.338;2023-04-24T09:43:31;10.05;;;7.00;;
26086;SDS011;13851;43.434;28.338;2023-04-24T09:45:58;11.48;;;7.00;;
26086;SDS011;13851;43.434;28.338;2023-04-24T09:48:36;12.23;;;7.70;;
26086;SDS011;13851;43.434;28.338;2023-04-24T09:51:03;18.05;;;6.97;;
26086;SDS011;13851;43.434;28.338;2023-04-24T09:53:32;11.45;;;7.35;;
26086;SDS011;13851;43.434;28.338;2023-04-24T09:56:10;15.05;;;7.10;;
26086;SDS011;13851;43.434;28.338;2023-04-24T09:58:38;12.80;;;7.05;;
26086;SDS011;13851;43.434;28.338;2023-04-24T10:01:04;13.77;;;7.00;;
26086;SDS011;13851;43.434;28.338;2023-04-24T10:03:30;12.07;;;7.63;;
26086;SDS011;13851;43.434;28.338;2023-04-24T10:06:01;12.10;;;7.20;;
26086;SDS011;13851;43.434;28.338;2023-04-24T10:08:33;12.23;;;6.60;;
26086;SDS011;13851;43.434;28.338;2023-04-24T10:10:59;15.80;;;7.07;;
26086;SDS011;13851;43.434;28.338;2023-04-24T10:13:26;13.68;;;7.25;;
26086;SDS011;13851;43.434;28.338;2023-04-24T10:15:52;10.20;;;7.82;;
26086;SDS011;13851;43.434;28.338;2023-04-24T10:18:20;15.73;;;7.28;;
26086;SDS011;13851;43.434;28.338;2023-04-24T10:20:46;15.65;;;7.40;;
26086;SDS011;13851;43.434;28.338;2023-04-24T10:23:13;13.10;;;8.00;;
26086;SDS011;13851;43.434;28.338;2023-04-24T10:25:40;14.80;;;7.28;;
26086;SDS011;13851;43.434;28.338;2023-04-24T10:28:05;12.57;;;6.68;;
26086;SDS011;13851;43.434;28.338;2023-04-24T10:30:32;13.82;;;7.50;;
26086;SDS011;13851;43.434;28.338;2023-04-24T10:33:00;11.60;;;7.70;;
26086;SDS011;13851;43.434;28.338;2023-04-24T10:35:37;11.38;;;7.95;;
26086;SDS011;13851;43.434;28.338;2023-04-24T10:38:08;15.40;;;8.55;;
26086;SDS011;13851;43.434;28.338;2023-04-24T10:40:37;10.15;;;7.55;;
26086;SDS011;13851;43.434;28.338;2023-04-24T10:43:03;13.45;;;7.88;;
26086;SDS011;13851;43.434;28.338;2023-04-24T10:45:35;14.02;;;7.97;;
26086;SDS011;13851;43.434;28.338;2023-04-24T10:48:06;12.13;;;7.80;;
26086;SDS011;13851;43.434;28.338;2023-04-24T10:50:43;10.35;;;7.50;;
26086;SDS011;13851;43.434;28.338;2023-04-24T10:53:13;13.77;;;7.50;;
26086;SDS011;13851;43.434;28.338;2023-04-24T10:58:10;13.95;;;7.40;;
26086;SDS011;13851;43.434;28.338;2023-04-24T11:00:37;12.50;;;7.07;;
26086;SDS011;13851;43.434;28.338;2023-04-24T11:03:05;11.98;;;7.40;;
26086;SDS011;13851;43.434;28.338;2023-04-24T11:05:51;12.52;;;7.28;;
26086;SDS011;13851;43.434;28.338;2023-04-24T11:08:38;13.48;;;7.53;;
26086;SDS011;13851;43.434;28.338;2023-04-24T11:19:05;12.82;;;7.28;;
26086;SDS011;13851;43.434;28.338;2023-04-24T11:24:23;14.13;;;7.40;;
26086;SDS011;13851;43.434;28.338;2023-04-24T11:32:15;12.63;;;6.38;;
26086;SDS011;13851;43.434;28.338;2023-04-24T11:34:45;11.85;;;6.50;;
26086;SDS011;13851;43.434;28.338;2023-04-24T11:37:11;12.52;;;5.95;;
26086;SDS011;13851;43.434;28.338;2023-04-24T11:39:38;11.15;;;6.03;;
26086;SDS011;13851;43.434;28.338;2023-04-24T11:42:04;10.27;;;6.80;;
26086;SDS011;13851;43.434;28.338;2023-04-24T11:44:31;11.50;;;6.68;;
26086;SDS011;13851;43.434;28.338;2023-04-24T11:46:59;12.05;;;6.78;;
26086;SDS011;13851;43.434;28.338;2023-04-24T11:49:24;15.93;;;7.18;;
26086;SDS011;13851;43.434;28.338;2023-04-24T11:51:50;10.68;;;7.03;;
26086;SDS011;13851;43.434;28.338;2023-04-24T11:54:19;13.32;;;6.25;;
26086;SDS011;13851;43.434;28.338;2023-04-24T11:56:46;15.38;;;6.90;;
26086;SDS011;13851;43.434;28.338;2023-04-24T11:59:12;10.18;;;6.75;;
26086;SDS011;13851;43.434;28.338;2023-04-24T12:01:44;11.07;;;6.95;;
26086;SDS011;13851;43.434;28.338;2023-04-24T12:04:11;13.00;;;7.15;;
26086;SDS011;13851;43.434;28.338;2023-04-24T12:06:37;12.98;;;6.70;;
26086;SDS011;13851;43.434;28.338;2023-04-24T12:09:03;12.13;;;6.85;;
26086;SDS011;13851;43.434;28.338;2023-04-24T12:11:29;14.73;;;6.35;;
26086;SDS011;13851;43.434;28.338;2023-04-24T12:13:54;11.77;;;7.20;;
26086;SDS011;13851;43.434;28.338;2023-04-24T12:16:20;11.77;;;6.47;;
26086;SDS011;13851;43.434;28.338;2023-04-24T12:18:45;11.07;;;6.22;;
26086;SDS011;13851;43.434;28.338;2023-04-24T12:21:23;11.63;;;6.32;;
26086;SDS011;13851;43.434;28.338;2023-04-24T12:23:54;12.70;;;6.28;;
26086;SDS011;13851;43.434;28.338;2023-04-24T12:26:20;16.38;;;6.40;;
26086;SDS011;13851;43.434;28.338;2023-04-24T12:28:48;13.18;;;5.90;;
26086;SDS011;13851;43.434;28.338;2023-04-24T12:31:17;8.20;;;5.38;;
26086;SDS011;13851;43.434;28.338;2023-04-24T12:36:11;11.23;;;5.80;;
26086;SDS011;13851;43.434;28.338;2023-04-24T12:38:37;10.65;;;5.80;;
26086;SDS011;13851;43.434;28.338;2023-04-24T12:41:07;11.00;;;5.88;;
26086;SDS011;13851;43.434;28.338;2023-04-24T12:43:37;10.85;;;6.03;;
26086;SDS011;13851;43.434;28.338;2023-04-24T12:46:03;12.27;;;6.15;;
26086;SDS011;13851;43.434;28.338;2023-04-24T12:48:29;9.38;;;5.70;;
26086;SDS011;13851;43.434;28.338;2023-04-24T12:50:58;12.65;;;5.75;;
26086;SDS011;13851;43.434;28.338;2023-04-24T12:53:26;11.93;;;6.30;;
26086;SDS011;13851;43.434;28.338;2023-04-24T12:55:53;9.80;;;5.70;;
26086;SDS011;13851;43.434;28.338;2023-04-24T12:58:19;12.88;;;6.22;;
26086;SDS011;13851;43.434;28.338;2023-04-24T13:00:45;11.52;;;6.20;;
26086;SDS011;13851;43.434;28.338;2023-04-24T13:03:11;11.35;;;6.28;;
26086;SDS011;13851;43.434;28.338;2023-04-24T13:05:37;10.18;;;6.22;;
26086;SDS011;13851;43.434;28.338;2023-04-24T13:08:03;11.10;;;6.80;;
26086;SDS011;13851;43.434;28.338;2023-04-24T13:10:29;11.07;;;5.28;;
26086;SDS011;13851;43.434;28.338;2023-04-24T13:12:55;12.75;;;6.45;;
26086;SDS011;13851;43.434;28.338;2023-04-24T13:15:20;10.68;;;6.20;;
26086;SDS011;13851;43.434;28.338;2023-04-24T13:17:46;12.32;;;6.00;;
26086;SDS011;13851;43.434;28.338;2023-04-24T13:20:12;8.15;;;5.20;;
26086;SDS011;13851;43.434;28.338;2023-04-24T13:22:37;9.98;;;6.05;;
26086;SDS011;13851;43.434;28.338;2023-04-24T13:25:03;10.23;;;5.85;;
26086;SDS011;13851;43.434;28.338;2023-04-24T13:27:30;12.18;;;6.13;;
26086;SDS011;13851;43.434;28.338;2023-04-24T13:29:56;10.40;;;6.35;;
26086;SDS011;13851;43.434;28.338;2023-04-24T13:32:21;11.48;;;5.70;;
26086;SDS011;13851;43.434;28.338;2023-04-24T13:34:47;10.82;;;5.57;;
26086;SDS011;13851;43.434;28.338;2023-04-24T13:37:13;10.48;;;6.13;;
26086;SDS011;13851;43.434;28.338;2023-04-24T13:39:38;9.75;;;5.93;;
26086;SDS011;13851;43.434;28.338;2023-04-24T13:42:06;16.20;;;6.75;;
26086;SDS011;13851;43.434;28.338;2023-04-24T13:44:31;16.42;;;6.32;;
26086;SDS011;13851;43.434;28.338;2023-04-24T13:46:57;13.73;;;6.78;;
26086;SDS011;13851;43.434;28.338;2023-04-24T13:49:23;7.90;;;6.60;;
26086;SDS011;13851;43.434;28.338;2023-04-24T13:51:50;11.43;;;6.30;;
26086;SDS011;13851;43.434;28.338;2023-04-24T13:54:16;13.68;;;6.38;;
26086;SDS011;13851;43.434;28.338;2023-04-24T13:56:42;9.38;;;6.63;;
26086;SDS011;13851;43.434;28.338;2023-04-24T13:59:07;12.25;;;6.35;;
26086;SDS011;13851;43.434;28.338;2023-04-24T14:01:33;11.27;;;6.47;;
26086;SDS011;13851;43.434;28.338;2023-04-24T14:03:59;12.57;;;6.43;;
26086;SDS011;13851;43.434;28.338;2023-04-24T14:06:25;11.02;;;6.18;;
26086;SDS011;13851;43.434;28.338;2023-04-24T14:08:50;10.52;;;6.47;;
26086;SDS011;13851;43.434;28.338;2023-04-24T14:11:17;10.40;;;6.35;;
26086;SDS011;13851;43.434;28.338;2023-04-24T14:13:43;8.68;;;5.75;;
26086;SDS011;13851;43.434;28.338;2023-04-24T14:16:10;10.88;;;5.95;;
26086;SDS011;13851;43.434;28.338;2023-04-24T14:18:36;10.15;;;6.50;;
26086;SDS011;13851;43.434;28.338;2023-04-24T14:21:02;12.73;;;6.47;;
26086;SDS011;13851;43.434;28.338;2023-04-24T14:23:28;11.27;;;6.35;;
26086;SDS011;13851;43.434;28.338;2023-04-24T14:25:54;12.18;;;6.70;;
26086;SDS011;13851;43.434;28.338;2023-04-24T14:28:20;9.65;;;5.43;;
26086;SDS011;13851;43.434;28.338;2023-04-24T14:30:47;9.10;;;6.57;;
26086;SDS011;13851;43.434;28.338;2023-04-24T14:33:13;11.75;;;5.55;;
26086;SDS011;13851;43.434;28.338;2023-04-24T14:35:42;9.80;;;5.38;;
26086;SDS011;13851;43.434;28.338;2023-04-24T14:38:07;13.88;;;6.20;;